sensor_id;sensor_type;location;lat;lon;timestamp;P1;durP1;ratioP1;P2;durP2;ratioP2
85820;SDS011;76265;50.102;8.854;2024-02-14T00:00:09;1.73;;;1.15;;
85820;SDS011;76265;50.102;8.854;2024-02-14T00:02:42;5.90;;;1.77;;
85820;SDS011;76265;50.102;8.854;2024-02-14T00:05:08;1.33;;;1.02;;
85820;SDS011;76265;50.102;8.854;2024-02-14T00:07:35;2.30;;;1.33;;
85820;SDS011;76265;50.102;8.854;2024-02-14T00:10:02;2.10;;;1.60;;
85820;SDS011;76265;50.102;8.854;2024-02-14T00:12:27;3.08;;;1.70;;
85820;SDS011;76265;50.102;8.854;2024-02-14T00:14:52;2.63;;;1.63;;
85820;SDS011;76265;50.102;8.854;2024-02-14T00:17:18;1.87;;;1.27;;
85820;SDS011;76265;50.102;8.854;2024-02-14T00:19:43;5.78;;;1.17;;
85820;SDS011;76265;50.102;8.854;2024-02-14T00:22:08;3.53;;;1.40;;
85820;SDS011;76265;50.102;8.854;2024-02-14T00:24:33;5.17;;;1.60;;
85820;SDS011;76265;50.102;8.854;2024-02-14T00:27:00;4.60;;;1.63;;
85820;SDS011;76265;50.102;8.854;2024-02-14T00:29:28;2.30;;;1.20;;
85820;SDS011;76265;50.102;8.854;2024-02-14T00:31:53;1.77;;;1.43;;
85820;SDS011;76265;50.102;8.854;2024-02-14T00:34:18;4.03;;;1.93;;
85820;SDS011;76265;50.102;8.854;2024-02-14T00:36:43;3.97;;;1.37;;
85820;SDS011;76265;50.102;8.854;2024-02-14T00:39:09;3.53;;;1.40;;
85820;SDS011;76265;50.102;8.854;2024-02-14T00:41:34;3.83;;;2.30;;
85820;SDS011;76265;50.102;8.854;2024-02-14T00:44:00;2.45;;;1.88;;
85820;SDS011;76265;50.102;8.854;2024-02-14T00:46:25;3.22;;;2.10;;
85820;SDS011;76265;50.102;8.854;2024-02-14T00:48:51;2.67;;;1.77;;
85820;SDS011;76265;50.102;8.854;2024-02-14T00:51:16;4.57;;;1.83;;
85820;SDS011;76265;50.102;8.854;2024-02-14T00:53:41;4.10;;;2.17;;
85820;SDS011;76265;50.102;8.854;2024-02-14T00:56:07;4.57;;;2.07;;
85820;SDS011;76265;50.102;8.854;2024-02-14T00:58:32;3.67;;;2.20;;
85820;SDS011;76265;50.102;8.854;2024-02-14T01:00:57;3.07;;;1.93;;
85820;SDS011;76265;50.102;8.854;2024-02-14T01:03:22;4.50;;;3.07;;
85820;SDS011;76265;50.102;8.854;2024-02-14T01:05:48;3.83;;;2.10;;
85820;SDS011;76265;50.102;8.854;2024-02-14T01:08:13;4.27;;;1.60;;
85820;SDS011;76265;50.102;8.854;2024-02-14T01:10:39;5.32;;;2.53;;
85820;SDS011;76265;50.102;8.854;2024-02-14T01:13:05;5.40;;;2.30;;
85820;SDS011;76265;50.102;8.854;2024-02-14T01:15:31;6.55;;;2.58;;
85820;SDS011;76265;50.102;8.854;2024-02-14T01:17:56;4.43;;;2.83;;
85820;SDS011;76265;50.102;8.854;2024-02-14T01:20:22;5.33;;;3.07;;
85820;SDS011;76265;50.102;8.854;2024-02-14T01:22:48;10.60;;;3.85;;
85820;SDS011;76265;50.102;8.854;2024-02-14T01:25:13;8.13;;;5.20;;
85820;SDS011;76265;50.102;8.854;2024-02-14T01:27:38;12.10;;;6.30;;
85820;SDS011;76265;50.102;8.854;2024-02-14T01:30:04;18.55;;;8.40;;
85820;SDS011;76265;50.102;8.854;2024-02-14T01:32:30;14.35;;;6.95;;
85820;SDS011;76265;50.102;8.854;2024-02-14T01:34:56;12.38;;;7.68;;
85820;SDS011;76265;50.102;8.854;2024-02-14T01:37:22;12.10;;;5.78;;
85820;SDS011;76265;50.102;8.854;2024-02-14T01:39:47;9.20;;;4.57;;
85820;SDS011;76265;50.102;8.854;2024-02-14T01:42:12;9.10;;;4.80;;
85820;SDS011;76265;50.102;8.854;2024-02-14T01:44:37;7.90;;;3.77;;
85820;SDS011;76265;50.102;8.854;2024-02-14T01:47:03;6.85;;;3.92;;
85820;SDS011;76265;50.102;8.854;2024-02-14T01:49:28;5.63;;;3.70;;
85820;SDS011;76265;50.102;8.854;2024-02-14T01:51:58;4.60;;;2.58;;
85820;SDS011;76265;50.102;8.854;2024-02-14T01:54:26;3.72;;;2.80;;
85820;SDS011;76265;50.102;8.854;2024-02-14T01:56:52;8.00;;;2.80;;
85820;SDS011;76265;50.102;8.854;2024-02-14T01:59:19;2.85;;;2.20;;
85820;SDS011;76265;50.102;8.854;2024-02-14T02:01:45;5.22;;;1.92;;
85820;SDS011;76265;50.102;8.854;2024-02-14T02:04:11;2.28;;;1.75;;
85820;SDS011;76265;50.102;8.854;2024-02-14T02:06:36;4.13;;;1.50;;
85820;SDS011;76265;50.102;8.854;2024-02-14T02:09:02;5.40;;;2.08;;
85820;SDS011;76265;50.102;8.854;2024-02-14T02:11:27;2.83;;;1.85;;
85820;SDS011;76265;50.102;8.854;2024-02-14T02:13:53;2.17;;;1.17;;
85820;SDS011;76265;50.102;8.854;2024-02-14T02:16:18;2.20;;;1.50;;
85820;SDS011;76265;50.102;8.854;2024-02-14T02:18:46;3.00;;;1.55;;
85820;SDS011;76265;50.102;8.854;2024-02-14T02:21:13;2.15;;;1.58;;
85820;SDS011;76265;50.102;8.854;2024-02-14T02:23:38;4.63;;;1.10;;
85820;SDS011;76265;50.102;8.854;2024-02-14T02:26:06;1.50;;;1.40;;
85820;SDS011;76265;50.102;8.854;2024-02-14T02:28:31;2.03;;;1.10;;
85820;SDS011;76265;50.102;8.854;2024-02-14T02:30:57;2.30;;;1.10;;
85820;SDS011;76265;50.102;8.854;2024-02-14T02:33:22;2.13;;;1.10;;
85820;SDS011;76265;50.102;8.854;2024-02-14T02:35:47;4.57;;;1.45;;
85820;SDS011;76265;50.102;8.854;2024-02-14T02:38:14;2.17;;;1.13;;
85820;SDS011;76265;50.102;8.854;2024-02-14T02:40:40;1.63;;;1.20;;
85820;SDS011;76265;50.102;8.854;2024-02-14T02:43:05;2.50;;;1.30;;
85820;SDS011;76265;50.102;8.854;2024-02-14T02:45:30;3.50;;;1.47;;
85820;SDS011;76265;50.102;8.854;2024-02-14T02:47:56;1.17;;;1.07;;
85820;SDS011;76265;50.102;8.854;2024-02-14T02:50:21;2.83;;;1.47;;
85820;SDS011;76265;50.102;8.854;2024-02-14T02:52:46;2.97;;;1.57;;
85820;SDS011;76265;50.102;8.854;2024-02-14T02:55:12;2.72;;;1.13;;
85820;SDS011;76265;50.102;8.854;2024-02-14T02:57:37;2.00;;;1.30;;
85820;SDS011;76265;50.102;8.854;2024-02-14T03:00:04;2.05;;;1.00;;
85820;SDS011;76265;50.102;8.854;2024-02-14T03:02:32;3.50;;;1.33;;
85820;SDS011;76265;50.102;8.854;2024-02-14T03:04:59;2.20;;;1.55;;
85820;SDS011;76265;50.102;8.854;2024-02-14T03:07:25;1.90;;;1.05;;
85820;SDS011;76265;50.102;8.854;2024-02-14T03:09:50;3.50;;;1.20;;
85820;SDS011;76265;50.102;8.854;2024-02-14T03:12:15;3.77;;;1.27;;
85820;SDS011;76265;50.102;8.854;2024-02-14T03:14:41;2.25;;;1.05;;
85820;SDS011;76265;50.102;8.854;2024-02-14T03:17:08;2.42;;;1.00;;
85820;SDS011;76265;50.102;8.854;2024-02-14T03:19:33;1.27;;;1.08;;
85820;SDS011;76265;50.102;8.854;2024-02-14T03:22:03;4.25;;;1.17;;
85820;SDS011;76265;50.102;8.854;2024-02-14T03:24:30;5.32;;;1.00;;
85820;SDS011;76265;50.102;8.854;2024-02-14T03:26:56;3.90;;;1.55;;
85820;SDS011;76265;50.102;8.854;2024-02-14T03:29:21;3.15;;;1.33;;
85820;SDS011;76265;50.102;8.854;2024-02-14T03:31:47;1.70;;;1.10;;
85820;SDS011;76265;50.102;8.854;2024-02-14T03:34:12;3.25;;;1.98;;
85820;SDS011;76265;50.102;8.854;2024-02-14T03:36:38;2.40;;;0.90;;
85820;SDS011;76265;50.102;8.854;2024-02-14T03:39:04;2.40;;;1.20;;
85820;SDS011;76265;50.102;8.854;2024-02-14T03:41:30;3.55;;;1.00;;
85820;SDS011;76265;50.102;8.854;2024-02-14T03:43:55;2.97;;;1.60;;
85820;SDS011;76265;50.102;8.854;2024-02-14T03:46:25;1.35;;;0.85;;
85820;SDS011;76265;50.102;8.854;2024-02-14T03:48:50;1.70;;;1.27;;
85820;SDS011;76265;50.102;8.854;2024-02-14T03:51:16;1.70;;;1.10;;
85820;SDS011;76265;50.102;8.854;2024-02-14T03:53:42;1.27;;;1.00;;
85820;SDS011;76265;50.102;8.854;2024-02-14T03:56:07;2.90;;;1.20;;
85820;SDS011;76265;50.102;8.854;2024-02-14T03:58:33;7.13;;;1.30;;
85820;SDS011;76265;50.102;8.854;2024-02-14T04:01:02;1.33;;;1.00;;
85820;SDS011;76265;50.102;8.854;2024-02-14T04:03:28;2.00;;;1.27;;
85820;SDS011;76265;50.102;8.854;2024-02-14T04:05:54;2.00;;;0.95;;
85820;SDS011;76265;50.102;8.854;2024-02-14T04:08:19;2.00;;;1.30;;
85820;SDS011;76265;50.102;8.854;2024-02-14T04:10:44;3.53;;;1.10;;
85820;SDS011;76265;50.102;8.854;2024-02-14T04:13:09;1.80;;;1.30;;
85820;SDS011;76265;50.102;8.854;2024-02-14T04:15:35;1.10;;;0.87;;
85820;SDS011;76265;50.102;8.854;2024-02-14T04:18:00;1.87;;;1.33;;
85820;SDS011;76265;50.102;8.854;2024-02-14T04:20:26;2.50;;;1.63;;
85820;SDS011;76265;50.102;8.854;2024-02-14T04:22:51;5.77;;;2.10;;
85820;SDS011;76265;50.102;8.854;2024-02-14T04:25:17;2.67;;;1.43;;
85820;SDS011;76265;50.102;8.854;2024-02-14T04:27:43;5.47;;;1.52;;
85820;SDS011;76265;50.102;8.854;2024-02-14T04:30:09;1.27;;;1.13;;
85820;SDS011;76265;50.102;8.854;2024-02-14T04:32:34;2.58;;;1.15;;
85820;SDS011;76265;50.102;8.854;2024-02-14T04:34:59;2.63;;;1.20;;
85820;SDS011;76265;50.102;8.854;2024-02-14T04:37:25;3.47;;;1.23;;
85820;SDS011;76265;50.102;8.854;2024-02-14T04:39:50;1.53;;;1.30;;
85820;SDS011;76265;50.102;8.854;2024-02-14T04:42:15;2.00;;;1.13;;
85820;SDS011;76265;50.102;8.854;2024-02-14T04:44:41;4.57;;;1.47;;
85820;SDS011;76265;50.102;8.854;2024-02-14T04:47:06;2.13;;;1.00;;
85820;SDS011;76265;50.102;8.854;2024-02-14T04:49:31;1.33;;;1.23;;
85820;SDS011;76265;50.102;8.854;2024-02-14T04:51:57;1.40;;;1.00;;
85820;SDS011;76265;50.102;8.854;2024-02-14T04:54:22;1.38;;;1.05;;
85820;SDS011;76265;50.102;8.854;2024-02-14T04:56:48;4.07;;;1.38;;
85820;SDS011;76265;50.102;8.854;2024-02-14T04:59:13;3.60;;;1.10;;
85820;SDS011;76265;50.102;8.854;2024-02-14T05:01:39;2.00;;;1.23;;
85820;SDS011;76265;50.102;8.854;2024-02-14T05:04:05;2.65;;;1.20;;
85820;SDS011;76265;50.102;8.854;2024-02-14T05:06:30;0.85;;;0.75;;
85820;SDS011;76265;50.102;8.854;2024-02-14T05:08:55;2.30;;;1.00;;
85820;SDS011;76265;50.102;8.854;2024-02-14T05:11:21;3.17;;;1.03;;
85820;SDS011;76265;50.102;8.854;2024-02-14T05:13:46;1.30;;;0.90;;
85820;SDS011;76265;50.102;8.854;2024-02-14T05:16:12;1.70;;;0.90;;
85820;SDS011;76265;50.102;8.854;2024-02-14T05:18:37;1.10;;;1.00;;
85820;SDS011;76265;50.102;8.854;2024-02-14T05:21:06;1.55;;;1.20;;
85820;SDS011;76265;50.102;8.854;2024-02-14T05:23:33;3.28;;;1.17;;
85820;SDS011;76265;50.102;8.854;2024-02-14T05:25:59;9.02;;;2.75;;
85820;SDS011;76265;50.102;8.854;2024-02-14T05:28:24;3.90;;;1.37;;
85820;SDS011;76265;50.102;8.854;2024-02-14T05:30:50;6.43;;;1.48;;
85820;SDS011;76265;50.102;8.854;2024-02-14T05:33:16;7.40;;;1.90;;
85820;SDS011;76265;50.102;8.854;2024-02-14T05:35:43;6.63;;;1.88;;
85820;SDS011;76265;50.102;8.854;2024-02-14T05:38:08;2.30;;;0.87;;
85820;SDS011;76265;50.102;8.854;2024-02-14T05:40:34;1.87;;;1.00;;
85820;SDS011;76265;50.102;8.854;2024-02-14T05:43:01;2.35;;;1.13;;
85820;SDS011;76265;50.102;8.854;2024-02-14T05:45:26;4.97;;;1.10;;
85820;SDS011;76265;50.102;8.854;2024-02-14T05:47:52;3.78;;;1.48;;
85820;SDS011;76265;50.102;8.854;2024-02-14T05:50:18;1.40;;;1.30;;
85820;SDS011;76265;50.102;8.854;2024-02-14T05:52:44;3.10;;;1.38;;
85820;SDS011;76265;50.102;8.854;2024-02-14T05:55:09;3.90;;;0.90;;
85820;SDS011;76265;50.102;8.854;2024-02-14T05:57:34;3.00;;;1.30;;
85820;SDS011;76265;50.102;8.854;2024-02-14T06:00:00;4.32;;;1.38;;
85820;SDS011;76265;50.102;8.854;2024-02-14T06:02:25;5.37;;;1.23;;
85820;SDS011;76265;50.102;8.854;2024-02-14T06:04:50;2.73;;;1.10;;
85820;SDS011;76265;50.102;8.854;2024-02-14T06:07:16;2.92;;;1.23;;
85820;SDS011;76265;50.102;8.854;2024-02-14T06:09:41;2.63;;;1.30;;
85820;SDS011;76265;50.102;8.854;2024-02-14T06:12:06;1.37;;;0.90;;
85820;SDS011;76265;50.102;8.854;2024-02-14T06:14:32;4.53;;;1.87;;
85820;SDS011;76265;50.102;8.854;2024-02-14T06:16:59;6.72;;;1.40;;
85820;SDS011;76265;50.102;8.854;2024-02-14T06:19:24;1.87;;;1.13;;
85820;SDS011;76265;50.102;8.854;2024-02-14T06:21:49;3.70;;;1.50;;
85820;SDS011;76265;50.102;8.854;2024-02-14T06:24:14;3.53;;;1.50;;
85820;SDS011;76265;50.102;8.854;2024-02-14T06:26:40;0.83;;;0.73;;
85820;SDS011;76265;50.102;8.854;2024-02-14T06:29:05;3.08;;;1.42;;
85820;SDS011;76265;50.102;8.854;2024-02-14T06:31:30;6.50;;;1.30;;
85820;SDS011;76265;50.102;8.854;2024-02-14T06:33:56;2.40;;;1.33;;
85820;SDS011;76265;50.102;8.854;2024-02-14T06:36:21;4.40;;;1.60;;
85820;SDS011;76265;50.102;8.854;2024-02-14T06:38:46;2.30;;;1.20;;
85820;SDS011;76265;50.102;8.854;2024-02-14T06:41:12;2.83;;;1.33;;
85820;SDS011;76265;50.102;8.854;2024-02-14T06:43:37;5.68;;;1.40;;
85820;SDS011;76265;50.102;8.854;2024-02-14T06:46:04;3.97;;;1.10;;
85820;SDS011;76265;50.102;8.854;2024-02-14T06:48:30;4.20;;;1.40;;
85820;SDS011;76265;50.102;8.854;2024-02-14T06:50:55;3.30;;;1.33;;
85820;SDS011;76265;50.102;8.854;2024-02-14T06:53:20;4.07;;;1.30;;
85820;SDS011;76265;50.102;8.854;2024-02-14T06:55:46;4.93;;;1.20;;
85820;SDS011;76265;50.102;8.854;2024-02-14T06:58:11;2.13;;;0.97;;
85820;SDS011;76265;50.102;8.854;2024-02-14T07:00:36;2.57;;;1.23;;
85820;SDS011;76265;50.102;8.854;2024-02-14T07:03:02;2.47;;;1.80;;
85820;SDS011;76265;50.102;8.854;2024-02-14T07:05:27;1.52;;;1.08;;
85820;SDS011;76265;50.102;8.854;2024-02-14T07:07:54;2.78;;;1.35;;
85820;SDS011;76265;50.102;8.854;2024-02-14T07:10:19;2.13;;;0.95;;
85820;SDS011;76265;50.102;8.854;2024-02-14T07:12:45;4.20;;;1.47;;
85820;SDS011;76265;50.102;8.854;2024-02-14T07:15:10;2.53;;;1.23;;
85820;SDS011;76265;50.102;8.854;2024-02-14T07:17:36;2.42;;;1.30;;
85820;SDS011;76265;50.102;8.854;2024-02-14T07:20:02;4.28;;;1.67;;
85820;SDS011;76265;50.102;8.854;2024-02-14T07:22:27;1.98;;;1.38;;
85820;SDS011;76265;50.102;8.854;2024-02-14T07:24:52;3.60;;;1.40;;
85820;SDS011;76265;50.102;8.854;2024-02-14T07:27:18;4.07;;;1.23;;
85820;SDS011;76265;50.102;8.854;2024-02-14T07:29:44;5.88;;;1.92;;
85820;SDS011;76265;50.102;8.854;2024-02-14T07:32:09;5.30;;;1.30;;
85820;SDS011;76265;50.102;8.854;2024-02-14T07:34:37;2.00;;;1.73;;
85820;SDS011;76265;50.102;8.854;2024-02-14T07:37:04;5.75;;;1.63;;
85820;SDS011;76265;50.102;8.854;2024-02-14T07:39:29;3.63;;;1.47;;
85820;SDS011;76265;50.102;8.854;2024-02-14T07:41:54;8.43;;;1.47;;
85820;SDS011;76265;50.102;8.854;2024-02-14T07:44:22;5.07;;;1.50;;
85820;SDS011;76265;50.102;8.854;2024-02-14T07:46:48;8.02;;;1.63;;
85820;SDS011;76265;50.102;8.854;2024-02-14T07:49:14;2.55;;;1.30;;
85820;SDS011;76265;50.102;8.854;2024-02-14T07:51:39;3.83;;;1.10;;
85820;SDS011;76265;50.102;8.854;2024-02-14T07:54:04;5.87;;;1.10;;
85820;SDS011;76265;50.102;8.854;2024-02-14T07:56:30;7.07;;;1.35;;
85820;SDS011;76265;50.102;8.854;2024-02-14T07:58:56;2.75;;;1.60;;
85820;SDS011;76265;50.102;8.854;2024-02-14T08:01:21;1.63;;;0.90;;
85820;SDS011;76265;50.102;8.854;2024-02-14T08:03:46;3.90;;;1.50;;
85820;SDS011;76265;50.102;8.854;2024-02-14T08:06:12;8.97;;;1.50;;
85820;SDS011;76265;50.102;8.854;2024-02-14T08:08:38;2.85;;;1.10;;
85820;SDS011;76265;50.102;8.854;2024-02-14T08:11:03;1.73;;;1.00;;
85820;SDS011;76265;50.102;8.854;2024-02-14T08:13:29;2.63;;;1.00;;
85820;SDS011;76265;50.102;8.854;2024-02-14T08:15:54;7.47;;;1.10;;
85820;SDS011;76265;50.102;8.854;2024-02-14T08:18:19;3.33;;;1.27;;
85820;SDS011;76265;50.102;8.854;2024-02-14T08:20:45;7.43;;;1.50;;
85820;SDS011;76265;50.102;8.854;2024-02-14T08:23:10;0.90;;;0.90;;
85820;SDS011;76265;50.102;8.854;2024-02-14T08:25:35;3.53;;;1.55;;
85820;SDS011;76265;50.102;8.854;2024-02-14T08:28:01;2.37;;;0.97;;
85820;SDS011;76265;50.102;8.854;2024-02-14T08:30:26;0.80;;;0.80;;
85820;SDS011;76265;50.102;8.854;2024-02-14T08:32:52;2.92;;;1.67;;
85820;SDS011;76265;50.102;8.854;2024-02-14T08:35:17;1.87;;;1.10;;
85820;SDS011;76265;50.102;8.854;2024-02-14T08:37:43;3.27;;;1.10;;
85820;SDS011;76265;50.102;8.854;2024-02-14T08:40:08;3.00;;;1.13;;
85820;SDS011;76265;50.102;8.854;2024-02-14T08:42:34;3.10;;;1.20;;
85820;SDS011;76265;50.102;8.854;2024-02-14T08:45:00;7.03;;;1.20;;
85820;SDS011;76265;50.102;8.854;2024-02-14T08:47:26;2.35;;;1.30;;
85820;SDS011;76265;50.102;8.854;2024-02-14T08:49:51;1.97;;;0.97;;
85820;SDS011;76265;50.102;8.854;2024-02-14T08:52:16;1.67;;;1.00;;
85820;SDS011;76265;50.102;8.854;2024-02-14T08:54:43;2.75;;;1.20;;
85820;SDS011;76265;50.102;8.854;2024-02-14T08:57:08;1.93;;;1.20;;
85820;SDS011;76265;50.102;8.854;2024-02-14T08:59:34;2.13;;;1.00;;
85820;SDS011;76265;50.102;8.854;2024-02-14T09:01:59;4.00;;;1.20;;
85820;SDS011;76265;50.102;8.854;2024-02-14T09:04:24;2.40;;;1.30;;
85820;SDS011;76265;50.102;8.854;2024-02-14T09:06:49;0.80;;;0.80;;
85820;SDS011;76265;50.102;8.854;2024-02-14T09:09:15;3.60;;;1.23;;
85820;SDS011;76265;50.102;8.854;2024-02-14T09:11:40;4.10;;;1.27;;
85820;SDS011;76265;50.102;8.854;2024-02-14T09:14:06;2.50;;;1.15;;
85820;SDS011;76265;50.102;8.854;2024-02-14T09:16:32;1.77;;;0.90;;
85820;SDS011;76265;50.102;8.854;2024-02-14T09:18:58;0.95;;;0.90;;
85820;SDS011;76265;50.102;8.854;2024-02-14T09:21:23;3.30;;;1.23;;
85820;SDS011;76265;50.102;8.854;2024-02-14T09:23:49;3.93;;;1.40;;
85820;SDS011;76265;50.102;8.854;2024-02-14T09:26:14;1.87;;;1.17;;
85820;SDS011;76265;50.102;8.854;2024-02-14T09:28:41;1.30;;;0.98;;
85820;SDS011;76265;50.102;8.854;2024-02-14T09:31:07;3.13;;;0.93;;
85820;SDS011;76265;50.102;8.854;2024-02-14T09:33:34;3.80;;;1.00;;
85820;SDS011;76265;50.102;8.854;2024-02-14T09:36:01;2.28;;;1.27;;
85820;SDS011;76265;50.102;8.854;2024-02-14T09:38:27;2.05;;;1.08;;
85820;SDS011;76265;50.102;8.854;2024-02-14T09:40:57;2.63;;;1.00;;
85820;SDS011;76265;50.102;8.854;2024-02-14T09:43:32;3.22;;;1.30;;
85820;SDS011;76265;50.102;8.854;2024-02-14T09:46:01;2.88;;;1.38;;
85820;SDS011;76265;50.102;8.854;2024-02-14T09:48:28;2.33;;;1.30;;
85820;SDS011;76265;50.102;8.854;2024-02-14T09:50:54;2.50;;;1.30;;
85820;SDS011;76265;50.102;8.854;2024-02-14T09:53:21;3.53;;;1.42;;
85820;SDS011;76265;50.102;8.854;2024-02-14T09:55:49;4.40;;;1.42;;
85820;SDS011;76265;50.102;8.854;2024-02-14T09:58:15;5.07;;;1.75;;
85820;SDS011;76265;50.102;8.854;2024-02-14T10:00:42;3.55;;;1.50;;
85820;SDS011;76265;50.102;8.854;2024-02-14T10:03:07;3.17;;;1.27;;
85820;SDS011;76265;50.102;8.854;2024-02-14T10:05:33;4.22;;;1.33;;
85820;SDS011;76265;50.102;8.854;2024-02-14T10:07:58;2.30;;;1.23;;
85820;SDS011;76265;50.102;8.854;2024-02-14T10:10:24;1.63;;;1.43;;
85820;SDS011;76265;50.102;8.854;2024-02-14T10:12:50;3.20;;;1.45;;
85820;SDS011;76265;50.102;8.854;2024-02-14T10:15:15;4.13;;;1.23;;
85820;SDS011;76265;50.102;8.854;2024-02-14T10:17:40;1.90;;;1.27;;
85820;SDS011;76265;50.102;8.854;2024-02-14T10:20:06;1.93;;;1.23;;
85820;SDS011;76265;50.102;8.854;2024-02-14T10:22:35;1.58;;;1.08;;
85820;SDS011;76265;50.102;8.854;2024-02-14T10:25:02;2.72;;;1.92;;
85820;SDS011;76265;50.102;8.854;2024-02-14T10:27:29;1.52;;;1.20;;
85820;SDS011;76265;50.102;8.854;2024-02-14T10:29:56;2.25;;;1.05;;
85820;SDS011;76265;50.102;8.854;2024-02-14T10:32:22;3.25;;;1.30;;
85820;SDS011;76265;50.102;8.854;2024-02-14T10:34:49;2.78;;;1.30;;
85820;SDS011;76265;50.102;8.854;2024-02-14T10:37:14;2.58;;;1.42;;
85820;SDS011;76265;50.102;8.854;2024-02-14T10:39:41;2.10;;;1.15;;
85820;SDS011;76265;50.102;8.854;2024-02-14T10:42:08;1.73;;;1.00;;
85820;SDS011;76265;50.102;8.854;2024-02-14T10:44:34;1.77;;;1.00;;
85820;SDS011;76265;50.102;8.854;2024-02-14T10:47:00;4.00;;;0.90;;
85820;SDS011;76265;50.102;8.854;2024-02-14T10:49:28;2.53;;;1.15;;
85820;SDS011;76265;50.102;8.854;2024-02-14T10:51:54;2.42;;;1.08;;
85820;SDS011;76265;50.102;8.854;2024-02-14T10:54:24;2.80;;;1.20;;
85820;SDS011;76265;50.102;8.854;2024-02-14T10:56:50;5.60;;;1.33;;
85820;SDS011;76265;50.102;8.854;2024-02-14T10:59:19;3.72;;;1.08;;
85820;SDS011;76265;50.102;8.854;2024-02-14T11:01:46;1.52;;;1.00;;
85820;SDS011;76265;50.102;8.854;2024-02-14T11:04:12;1.92;;;1.10;;
85820;SDS011;76265;50.102;8.854;2024-02-14T11:06:45;4.13;;;1.17;;
85820;SDS011;76265;50.102;8.854;2024-02-14T11:09:14;3.83;;;1.13;;
85820;SDS011;76265;50.102;8.854;2024-02-14T11:11:41;5.53;;;1.10;;
85820;SDS011;76265;50.102;8.854;2024-02-14T11:14:08;6.18;;;1.45;;
85820;SDS011;76265;50.102;8.854;2024-02-14T11:16:34;3.33;;;1.13;;
85820;SDS011;76265;50.102;8.854;2024-02-14T11:19:11;3.45;;;1.50;;
85820;SDS011;76265;50.102;8.854;2024-02-14T11:24:10;2.25;;;1.13;;
85820;SDS011;76265;50.102;8.854;2024-02-14T11:26:40;2.63;;;1.05;;
85820;SDS011;76265;50.102;8.854;2024-02-14T11:29:13;1.40;;;0.90;;
85820;SDS011;76265;50.102;8.854;2024-02-14T11:31:41;4.97;;;1.30;;
85820;SDS011;76265;50.102;8.854;2024-02-14T11:34:06;3.67;;;1.20;;
85820;SDS011;76265;50.102;8.854;2024-02-14T11:36:33;2.30;;;0.90;;
85820;SDS011;76265;50.102;8.854;2024-02-14T11:39:02;2.42;;;0.88;;
85820;SDS011;76265;50.102;8.854;2024-02-14T11:41:32;3.00;;;1.42;;
85820;SDS011;76265;50.102;8.854;2024-02-14T11:44:02;1.38;;;1.00;;
85820;SDS011;76265;50.102;8.854;2024-02-14T11:46:31;3.03;;;1.10;;
85820;SDS011;76265;50.102;8.854;2024-02-14T11:48:58;2.20;;;1.20;;
85820;SDS011;76265;50.102;8.854;2024-02-14T11:51:26;1.92;;;0.85;;
85820;SDS011;76265;50.102;8.854;2024-02-14T11:53:52;4.00;;;1.23;;
85820;SDS011;76265;50.102;8.854;2024-02-14T11:56:17;2.13;;;1.10;;
85820;SDS011;76265;50.102;8.854;2024-02-14T11:58:43;2.37;;;1.00;;
85820;SDS011;76265;50.102;8.854;2024-02-14T12:01:08;2.10;;;1.07;;
85820;SDS011;76265;50.102;8.854;2024-02-14T12:03:34;3.05;;;1.05;;
85820;SDS011;76265;50.102;8.854;2024-02-14T12:06:00;1.17;;;0.80;;
85820;SDS011;76265;50.102;8.854;2024-02-14T12:08:28;3.10;;;0.93;;
85820;SDS011;76265;50.102;8.854;2024-02-14T12:10:53;2.10;;;1.15;;
85820;SDS011;76265;50.102;8.854;2024-02-14T12:13:22;3.85;;;1.58;;
85820;SDS011;76265;50.102;8.854;2024-02-14T12:15:48;2.47;;;1.20;;
85820;SDS011;76265;50.102;8.854;2024-02-14T12:18:14;1.00;;;0.70;;
85820;SDS011;76265;50.102;8.854;2024-02-14T12:20:41;2.20;;;1.00;;
85820;SDS011;76265;50.102;8.854;2024-02-14T12:23:13;2.83;;;1.13;;
85820;SDS011;76265;50.102;8.854;2024-02-14T12:25:39;2.25;;;1.02;;
85820;SDS011;76265;50.102;8.854;2024-02-14T12:28:05;3.55;;;1.08;;
85820;SDS011;76265;50.102;8.854;2024-02-14T12:30:50;1.80;;;0.95;;
85820;SDS011;76265;50.102;8.854;2024-02-14T12:33:22;1.85;;;1.10;;
85820;SDS011;76265;50.102;8.854;2024-02-14T12:35:49;3.55;;;1.10;;
85820;SDS011;76265;50.102;8.854;2024-02-14T12:38:15;8.30;;;1.48;;
85820;SDS011;76265;50.102;8.854;2024-02-14T12:40:42;3.83;;;1.30;;
85820;SDS011;76265;50.102;8.854;2024-02-14T12:43:08;1.50;;;0.95;;
85820;SDS011;76265;50.102;8.854;2024-02-14T12:45:34;2.13;;;1.02;;
85820;SDS011;76265;50.102;8.854;2024-02-14T12:47:59;2.33;;;1.33;;
85820;SDS011;76265;50.102;8.854;2024-02-14T12:50:25;2.10;;;1.00;;
85820;SDS011;76265;50.102;8.854;2024-02-14T12:52:51;2.15;;;0.90;;
85820;SDS011;76265;50.102;8.854;2024-02-14T12:55:16;1.33;;;0.93;;
85820;SDS011;76265;50.102;8.854;2024-02-14T12:57:41;2.70;;;1.50;;
85820;SDS011;76265;50.102;8.854;2024-02-14T13:00:07;2.37;;;1.57;;
85820;SDS011;76265;50.102;8.854;2024-02-14T13:02:33;1.83;;;1.10;;
85820;SDS011;76265;50.102;8.854;2024-02-14T13:04:59;2.38;;;1.50;;
85820;SDS011;76265;50.102;8.854;2024-02-14T13:07:24;1.40;;;1.17;;
85820;SDS011;76265;50.102;8.854;2024-02-14T13:09:50;2.47;;;1.20;;
85820;SDS011;76265;50.102;8.854;2024-02-14T13:12:15;4.50;;;1.55;;
85820;SDS011;76265;50.102;8.854;2024-02-14T13:14:41;2.97;;;1.40;;
85820;SDS011;76265;50.102;8.854;2024-02-14T13:17:06;2.17;;;1.33;;
85820;SDS011;76265;50.102;8.854;2024-02-14T13:19:31;2.60;;;1.30;;
85820;SDS011;76265;50.102;8.854;2024-02-14T13:21:57;1.93;;;1.27;;
85820;SDS011;76265;50.102;8.854;2024-02-14T13:24:22;2.17;;;1.13;;
85820;SDS011;76265;50.102;8.854;2024-02-14T13:26:47;3.00;;;1.87;;
85820;SDS011;76265;50.102;8.854;2024-02-14T13:29:12;2.73;;;1.00;;
85820;SDS011;76265;50.102;8.854;2024-02-14T13:31:38;3.50;;;1.80;;
85820;SDS011;76265;50.102;8.854;2024-02-14T13:34:03;2.43;;;1.33;;
85820;SDS011;76265;50.102;8.854;2024-02-14T13:36:28;1.47;;;1.20;;
85820;SDS011;76265;50.102;8.854;2024-02-14T13:38:54;1.70;;;0.93;;
85820;SDS011;76265;50.102;8.854;2024-02-14T13:41:19;1.40;;;1.10;;
85820;SDS011;76265;50.102;8.854;2024-02-14T13:43:44;3.53;;;1.27;;
85820;SDS011;76265;50.102;8.854;2024-02-14T13:46:10;2.90;;;1.33;;
85820;SDS011;76265;50.102;8.854;2024-02-14T13:48:35;1.40;;;1.13;;
85820;SDS011;76265;50.102;8.854;2024-02-14T13:51:01;3.27;;;1.27;;
85820;SDS011;76265;50.102;8.854;2024-02-14T13:53:28;2.00;;;1.00;;
85820;SDS011;76265;50.102;8.854;2024-02-14T13:55:53;2.33;;;1.43;;
85820;SDS011;76265;50.102;8.854;2024-02-14T13:58:18;1.43;;;1.20;;
85820;SDS011;76265;50.102;8.854;2024-02-14T14:00:44;2.53;;;1.15;;
85820;SDS011;76265;50.102;8.854;2024-02-14T14:03:09;4.67;;;1.30;;
85820;SDS011;76265;50.102;8.854;2024-02-14T14:05:35;1.73;;;1.20;;
85820;SDS011;76265;50.102;8.854;2024-02-14T14:08:00;3.58;;;1.00;;
85820;SDS011;76265;50.102;8.854;2024-02-14T14:10:26;2.20;;;1.20;;
85820;SDS011;76265;50.102;8.854;2024-02-14T14:12:52;1.55;;;1.27;;
85820;SDS011;76265;50.102;8.854;2024-02-14T14:15:17;1.37;;;1.20;;
85820;SDS011;76265;50.102;8.854;2024-02-14T14:17:43;1.37;;;1.20;;
85820;SDS011;76265;50.102;8.854;2024-02-14T14:20:08;2.33;;;1.37;;
85820;SDS011;76265;50.102;8.854;2024-02-14T14:22:34;3.40;;;1.63;;
85820;SDS011;76265;50.102;8.854;2024-02-14T14:24:59;4.00;;;1.30;;
85820;SDS011;76265;50.102;8.854;2024-02-14T14:27:24;2.23;;;0.90;;
85820;SDS011;76265;50.102;8.854;2024-02-14T14:29:50;4.73;;;1.00;;
85820;SDS011;76265;50.102;8.854;2024-02-14T14:32:15;1.87;;;1.13;;
85820;SDS011;76265;50.102;8.854;2024-02-14T14:34:41;3.13;;;1.42;;
85820;SDS011;76265;50.102;8.854;2024-02-14T14:37:07;5.07;;;1.20;;
85820;SDS011;76265;50.102;8.854;2024-02-14T14:39:32;2.75;;;1.40;;
85820;SDS011;76265;50.102;8.854;2024-02-14T14:41:57;2.67;;;2.30;;